Time;durP1;ratioP1;P1;durP2;ratioP2;P2;SDS_P1;SDS_P2;PMS_P1;PMS_P2;Temp;Humidity;BMP_temperature;BMP_pressure;BME280_temperature;BME280_humidity;BME280_pressure;Samples;Min_cycle;Max_cycle;Signal;HPM_P1;HPM_P2
2023/05/13 00:00:45;;;;;;;17.75;4.80;;;18.30;80.70;;;;;;4986751;28;20088;-54
2023/05/13 00:03:11;;;;;;;18.60;4.65;;;18.30;80.80;;;;;;4986947;28;20045;-54
2023/05/13 00:05:36;;;;;;;13.05;4.85;;;18.20;80.80;;;;;;4987231;28;20031;-54
2023/05/13 00:08:05;;;;;;;21.63;5.72;;;18.30;81.00;;;;;;4988460;28;20356;-54
2023/05/13 00:10:32;;;;;;;13.55;5.90;;;18.20;81.00;;;;;;4988542;28;20185;-55
2023/05/13 00:12:58;;;;;;;19.77;8.10;;;18.20;81.20;;;;;;4986961;28;20049;-55
2023/05/13 00:15:23;;;;;;;16.58;7.75;;;17.90;81.20;;;;;;4988058;28;20447;-55
2023/05/13 00:17:49;;;;;;;15.40;7.05;;;18.20;81.40;;;;;;4987148;28;20471;-54
2023/05/13 00:20:15;;;;;;;16.30;7.57;;;18.10;81.50;;;;;;4986449;28;20031;-54
2023/05/13 00:22:40;;;;;;;18.15;8.73;;;18.10;81.60;;;;;;4988063;28;20475;-54
2023/05/13 00:25:06;;;;;;;17.65;8.25;;;18.10;81.70;;;;;;4985758;28;20114;-55
2023/05/13 00:27:32;;;;;;;16.17;8.20;;;18.10;81.70;;;;;;4970577;28;20031;-54
2023/05/13 00:29:58;;;;;;;20.02;6.78;;;18.10;81.60;;;;;;4987528;28;20035;-54
2023/05/13 00:32:24;;;;;;;14.55;5.97;;;18.00;81.60;;;;;;5002486;28;20078;-54
2023/05/13 00:34:49;;;;;;;12.15;5.05;;;18.10;81.60;;;;;;5002888;28;20038;-55
2023/05/13 00:37:15;;;;;;;15.23;5.60;;;18.00;81.50;;;;;;4986172;28;20193;-54
2023/05/13 00:39:41;;;;;;;15.07;5.20;;;18.00;81.50;;;;;;4986560;28;20026;-54
2023/05/13 00:42:06;;;;;;;16.73;5.80;;;18.00;81.50;;;;;;4986534;28;20047;-54
2023/05/13 00:44:33;;;;;;;9.70;5.28;;;18.00;81.70;;;;;;4986780;28;20069;-54
2023/05/13 00:46:59;;;;;;;16.58;5.32;;;18.00;81.70;;;;;;4970952;28;20372;-55
2023/05/13 00:49:25;;;;;;;11.23;5.35;;;17.90;81.70;;;;;;4985328;28;20452;-54
2023/05/13 00:51:53;;;;;;;16.88;6.15;;;18.00;81.90;;;;;;4985887;28;20035;-55
2023/05/13 00:54:19;;;;;;;11.45;5.03;;;18.00;81.90;;;;;;4986106;28;20051;-55
2023/05/13 00:56:45;;;;;;;12.88;5.88;;;17.90;82.00;;;;;;4970152;28;20034;-55
2023/05/13 00:59:10;;;;;;;12.52;6.53;;;17.90;81.90;;;;;;4987445;28;20479;-55
2023/05/13 01:01:43;;;;;;;12.70;6.78;;;17.90;82.00;;;;;;5002262;28;20046;-54
2023/05/13 01:04:09;;;;;;;16.10;7.32;;;17.90;82.10;;;;;;4985412;28;20022;-54
2023/05/13 01:06:56;;;;;;;16.63;8.18;;;17.90;82.20;;;;;;4987359;28;20033;-54
2023/05/13 01:09:31;;;;;;;13.40;7.35;;;17.80;82.20;;;;;;4969937;28;20093;-54
2023/05/13 01:11:56;;;;;;;18.35;8.43;;;17.80;82.20;;;;;;4987866;28;20031;-54
2023/05/13 01:14:24;;;;;;;18.33;9.30;;;17.80;82.30;;;;;;4985728;28;20069;-54
2023/05/13 01:16:57;;;;;;;19.85;9.48;;;17.80;82.40;;;;;;4986159;28;20041;-55
2023/05/13 01:19:31;;;;;;;17.38;9.25;;;17.80;82.50;;;;;;4986378;28;20049;-55
2023/05/13 01:21:57;;;;;;;23.25;9.45;;;17.70;82.50;;;;;;4987634;28;20035;-54
2023/05/13 01:24:22;;;;;;;15.00;7.82;;;17.70;82.60;;;;;;4969844;28;20040;-54
2023/05/13 01:26:48;;;;;;;19.83;9.68;;;17.70;82.60;;;;;;4969951;28;20026;-54
2023/05/13 01:29:14;;;;;;;20.73;9.40;;;17.70;82.70;;;;;;4986280;28;20015;-54
2023/05/13 01:31:39;;;;;;;23.48;9.02;;;17.70;82.70;;;;;;4986098;28;20456;-55
2023/05/13 01:34:05;;;;;;;16.05;8.95;;;17.70;82.80;;;;;;4969882;28;20043;-55
2023/05/13 01:36:31;;;;;;;17.85;8.60;;;17.70;82.90;;;;;;4986027;28;20037;-54
2023/05/13 01:38:56;;;;;;;21.10;8.43;;;17.70;83.00;;;;;;4985828;28;20031;-54
2023/05/13 01:41:22;;;;;;;21.50;9.20;;;17.70;83.00;;;;;;4985736;28;20033;-54
2023/05/13 01:43:48;;;;;;;15.27;7.53;;;17.60;83.10;;;;;;4969661;28;20051;-55
2023/05/13 01:46:13;;;;;;;14.25;8.40;;;17.60;83.20;;;;;;4987091;28;20027;-54
2023/05/13 01:48:39;;;;;;;17.38;7.57;;;17.60;83.20;;;;;;4985953;28;20103;-55
2023/05/13 01:51:05;;;;;;;16.73;8.50;;;17.60;83.20;;;;;;4985276;28;20050;-55
2023/05/13 01:53:30;;;;;;;17.05;8.00;;;17.60;83.10;;;;;;4985835;28;20095;-55
2023/05/13 01:55:56;;;;;;;13.52;7.97;;;17.60;83.50;;;;;;4985042;28;20031;-54
2023/05/13 01:58:21;;;;;;;18.95;9.98;;;17.60;83.20;;;;;;4986798;28;20034;-55
2023/05/13 02:00:47;;;;;;;15.70;8.82;;;17.60;83.20;;;;;;4985157;28;20026;-55
2023/05/13 02:03:12;;;;;;;22.33;8.63;;;17.50;83.20;;;;;;4985007;28;20039;-54
2023/05/13 02:05:38;;;;;;;15.52;8.68;;;17.60;83.30;;;;;;5017989;28;20515;-54
2023/05/13 02:08:05;;;;;;;17.85;9.38;;;17.60;83.40;;;;;;4968897;28;20123;-55
2023/05/13 02:10:30;;;;;;;15.70;9.02;;;17.50;83.50;;;;;;4985026;28;20057;-55
2023/05/13 02:12:56;;;;;;;16.15;9.20;;;17.50;83.50;;;;;;4985281;28;20034;-54
2023/05/13 02:15:21;;;;;;;15.25;9.40;;;17.50;83.60;;;;;;4984854;28;20511;-54
2023/05/13 02:17:47;;;;;;;14.70;8.80;;;17.50;83.60;;;;;;4984110;28;20487;-54
2023/05/13 02:20:13;;;;;;;13.38;8.07;;;17.50;83.60;;;;;;4980583;28;20499;-55
2023/05/13 02:22:39;;;;;;;15.02;8.40;;;17.50;83.70;;;;;;4972563;28;20436;-55
2023/05/13 02:25:04;;;;;;;16.23;8.43;;;17.40;83.70;;;;;;4983805;28;20034;-54
2023/05/13 02:27:30;;;;;;;16.38;8.45;;;17.40;83.80;;;;;;4985816;28;20031;-54
2023/05/13 02:29:55;;;;;;;14.23;8.43;;;17.40;83.90;;;;;;4968207;28;20031;-55
2023/05/13 02:32:21;;;;;;;13.43;8.27;;;17.40;84.00;;;;;;4986268;28;20035;-55
2023/05/13 02:34:46;;;;;;;12.73;8.52;;;17.40;84.10;;;;;;4984642;28;20081;-54
2023/05/13 02:37:12;;;;;;;18.25;8.50;;;17.40;84.20;;;;;;4983680;28;20034;-54
2023/05/13 02:39:38;;;;;;;14.88;8.50;;;17.40;84.30;;;;;;4985422;28;20037;-55
2023/05/13 02:42:04;;;;;;;16.85;8.57;;;17.40;84.30;;;;;;4968082;28;20054;-55
2023/05/13 02:44:29;;;;;;;22.20;8.73;;;17.30;84.30;;;;;;4985292;28;20153;-55
2023/05/13 02:46:55;;;;;;;15.90;8.18;;;17.30;84.40;;;;;;4984375;28;20114;-54
2023/05/13 02:49:20;;;;;;;17.02;8.10;;;17.30;84.40;;;;;;4984956;28;20043;-54
2023/05/13 02:51:47;;;;;;;14.30;7.75;;;17.30;84.40;;;;;;4984019;28;20460;-55
2023/05/13 02:54:12;;;;;;;15.55;8.30;;;17.30;84.40;;;;;;4985783;28;20051;-54
2023/05/13 02:56:38;;;;;;;16.70;8.23;;;17.30;84.40;;;;;;4983851;28;20863;-54
2023/05/13 02:59:03;;;;;;;12.23;7.80;;;17.30;84.50;;;;;;4985165;28;20026;-55
2023/05/13 03:01:29;;;;;;;13.27;7.45;;;17.30;84.50;;;;;;4985424;28;20059;-54
2023/05/13 03:03:54;;;;;;;12.88;6.72;;;17.30;84.50;;;;;;4983320;28;20030;-54
2023/05/13 03:06:20;;;;;;;12.95;7.45;;;17.20;84.50;;;;;;4984432;28;20023;-54
2023/05/13 03:08:45;;;;;;;12.77;7.28;;;17.20;84.60;;;;;;4984523;28;20038;-55
2023/05/13 03:11:11;;;;;;;15.77;7.35;;;17.20;84.60;;;;;;4983613;28;20030;-54
2023/05/13 03:13:36;;;;;;;12.25;7.47;;;17.20;84.60;;;;;;4985097;28;20046;-55
2023/05/13 03:16:02;;;;;;;13.60;7.30;;;17.20;84.70;;;;;;4984043;28;20039;-55
2023/05/13 03:18:30;;;;;;;13.32;7.30;;;17.20;84.80;;;;;;4983678;28;20035;-54
2023/05/13 03:20:55;;;;;;;12.73;6.97;;;17.10;84.80;;;;;;4985222;28;20041;-54
2023/05/13 03:23:21;;;;;;;12.00;7.45;;;17.20;84.90;;;;;;4983249;28;20035;-55
2023/05/13 03:25:46;;;;;;;11.77;7.25;;;17.10;84.80;;;;;;4984405;28;20050;-55
2023/05/13 03:28:12;;;;;;;11.27;6.65;;;17.10;84.90;;;;;;4985474;28;20091;-54
2023/05/13 03:30:37;;;;;;;9.82;6.20;;;17.10;85.00;;;;;;4983414;28;20036;-54
2023/05/13 03:33:03;;;;;;;10.48;6.22;;;17.10;85.00;;;;;;4984269;28;20117;-54
2023/05/13 03:35:29;;;;;;;12.88;6.35;;;17.10;85.00;;;;;;4985094;28;20111;-55
2023/05/13 03:37:54;;;;;;;11.93;6.50;;;17.10;85.00;;;;;;4986193;28;20082;-54
2023/05/13 03:40:20;;;;;;;10.70;6.00;;;17.10;85.00;;;;;;4984407;28;20037;-54
2023/05/13 03:42:45;;;;;;;13.45;6.55;;;17.10;85.00;;;;;;4985522;28;20035;-54
2023/05/13 03:45:11;;;;;;;15.32;5.97;;;17.10;85.10;;;;;;4984164;28;20030;-54
2023/05/13 03:47:38;;;;;;;11.20;6.60;;;17.00;85.00;;;;;;4984204;28;20035;-54
2023/05/13 03:50:04;;;;;;;12.43;6.35;;;17.00;85.10;;;;;;4983481;28;20161;-55
2023/05/13 03:52:29;;;;;;;13.27;6.10;;;17.00;85.10;;;;;;4967729;28;20042;-54
2023/05/13 03:54:55;;;;;;;9.38;5.72;;;17.00;85.20;;;;;;4964228;28;20427;-54
2023/05/13 03:57:20;;;;;;;8.55;5.47;;;17.00;85.20;;;;;;4964504;29;20125;-55
2023/05/13 03:59:46;;;;;;;13.82;6.38;;;17.00;85.30;;;;;;4983533;28;20349;-54
2023/05/13 04:02:12;;;;;;;9.32;5.43;;;17.00;85.30;;;;;;4984710;28;20054;-55
2023/05/13 04:04:37;;;;;;;11.63;6.03;;;17.00;85.40;;;;;;4983152;28;20057;-54
2023/05/13 04:07:03;;;;;;;12.43;6.03;;;17.00;85.40;;;;;;4983927;28;20142;-54
2023/05/13 04:09:28;;;;;;;13.48;6.00;;;16.90;85.40;;;;;;4982931;28;20035;-54
2023/05/13 04:11:54;;;;;;;9.05;5.60;;;16.90;85.40;;;;;;4983083;28;20031;-54
2023/05/13 04:14:20;;;;;;;8.52;5.28;;;16.90;85.50;;;;;;4983224;28;20106;-54
2023/05/13 04:16:45;;;;;;;7.03;5.55;;;16.90;85.60;;;;;;4985144;28;20057;-55
2023/05/13 04:19:11;;;;;;;10.40;5.70;;;16.90;85.50;;;;;;5015746;28;20130;-55
2023/05/13 04:21:36;;;;;;;9.70;5.28;;;16.90;85.60;;;;;;4983416;28;20046;-54
2023/05/13 04:24:02;;;;;;;8.50;5.80;;;16.90;85.70;;;;;;4984015;28;20036;-55
2023/05/13 04:26:28;;;;;;;8.07;5.32;;;16.90;85.70;;;;;;4989288;28;20062;-54
2023/05/13 04:28:53;;;;;;;10.98;5.43;;;16.80;85.70;;;;;;4986948;28;20038;-55
2023/05/13 04:31:20;;;;;;;10.23;5.32;;;16.80;85.80;;;;;;4985120;28;20026;-54
2023/05/13 04:33:45;;;;;;;10.23;5.45;;;16.80;85.80;;;;;;4987980;28;20055;-54
2023/05/13 04:36:11;;;;;;;12.43;5.20;;;16.80;85.90;;;;;;4986533;28;20054;-55
2023/05/13 04:38:36;;;;;;;10.80;5.55;;;16.80;86.00;;;;;;4988038;28;20034;-55
2023/05/13 04:41:02;;;;;;;10.52;5.40;;;16.80;86.00;;;;;;4987139;28;20031;-54
2023/05/13 04:43:28;;;;;;;8.88;5.20;;;16.80;86.00;;;;;;4987963;28;20034;-55
2023/05/13 04:45:53;;;;;;;18.23;6.28;;;16.80;86.10;;;;;;4987737;28;20042;-54
2023/05/13 04:48:19;;;;;;;19.05;6.45;;;16.80;86.00;;;;;;4988144;28;20034;-54
2023/05/13 04:50:45;;;;;;;14.50;5.07;;;16.80;86.10;;;;;;5018082;28;20035;-55
2023/05/13 04:53:11;;;;;;;18.40;5.65;;;16.80;86.10;;;;;;4985801;28;20035;-54
2023/05/13 04:55:36;;;;;;;14.15;5.38;;;16.80;86.00;;;;;;4986362;28;20375;-54
2023/05/13 04:58:02;;;;;;;9.93;5.25;;;16.80;86.10;;;;;;4986751;28;20376;-54
2023/05/13 05:00:28;;;;;;;12.80;5.40;;;16.70;86.10;;;;;;4987507;28;20376;-54
2023/05/13 05:02:53;;;;;;;13.07;5.55;;;16.70;86.10;;;;;;4984921;28;20141;-54
2023/05/13 05:05:19;;;;;;;12.80;4.85;;;16.60;86.20;;;;;;4987459;28;20037;-54
2023/05/13 05:07:44;;;;;;;11.63;4.97;;;16.70;86.30;;;;;;4986028;28;20050;-54
2023/05/13 05:10:10;;;;;;;10.48;5.20;;;16.70;86.30;;;;;;4985570;28;20027;-54
2023/05/13 05:12:36;;;;;;;10.43;4.65;;;16.70;86.30;;;;;;4987814;28;20046;-54
2023/05/13 05:15:03;;;;;;;11.07;4.70;;;16.70;86.40;;;;;;4987384;28;20250;-54
2023/05/13 05:17:31;;;;;;;9.60;4.40;;;16.70;86.50;;;;;;4986018;28;20045;-55
2023/05/13 05:19:57;;;;;;;10.73;4.18;;;16.70;86.40;;;;;;4985418;28;20030;-54
2023/05/13 05:22:23;;;;;;;10.25;4.72;;;16.70;86.50;;;;;;4985408;28;20058;-54
2023/05/13 05:24:48;;;;;;;11.57;4.60;;;16.70;86.50;;;;;;4987083;28;20031;-54
2023/05/13 05:27:14;;;;;;;10.20;4.82;;;16.70;86.50;;;;;;4986991;28;20046;-54
2023/05/13 05:29:40;;;;;;;9.40;4.20;;;16.60;87.10;;;;;;4986810;28;20456;-54
2023/05/13 05:32:06;;;;;;;9.20;3.95;;;16.60;86.50;;;;;;4985587;28;20035;-54
2023/05/13 05:34:32;;;;;;;6.93;3.97;;;16.60;86.60;;;;;;4985351;28;20031;-54
2023/05/13 05:36:57;;;;;;;7.97;4.45;;;16.60;86.60;;;;;;4986211;28;20122;-55
2023/05/13 05:39:23;;;;;;;6.78;3.70;;;16.60;86.60;;;;;;4971718;28;20031;-55
2023/05/13 05:41:48;;;;;;;10.05;4.45;;;16.60;86.60;;;;;;4983940;28;20046;-54
2023/05/13 05:44:14;;;;;;;9.45;3.85;;;16.60;86.70;;;;;;4984698;28;20035;-54
2023/05/13 05:46:39;;;;;;;10.75;3.85;;;16.60;86.80;;;;;;4985278;28;20031;-54
2023/05/13 05:49:07;;;;;;;6.07;3.85;;;16.60;86.80;;;;;;4986727;28;20051;-55
2023/05/13 05:51:32;;;;;;;7.57;3.85;;;16.50;86.70;;;;;;4986535;28;20057;-54
2023/05/13 05:53:58;;;;;;;5.63;3.58;;;16.50;86.70;;;;;;4985232;28;20035;-55
2023/05/13 05:56:23;;;;;;;6.75;3.95;;;16.50;86.70;;;;;;4985174;28;20043;-54
2023/05/13 05:58:49;;;;;;;5.30;3.42;;;16.50;86.80;;;;;;4984680;28;20031;-55
2023/05/13 06:01:14;;;;;;;5.53;4.00;;;16.50;86.80;;;;;;4986101;28;20034;-54
2023/05/13 06:03:40;;;;;;;8.77;3.83;;;16.50;87.50;;;;;;4984714;28;20034;-54
2023/05/13 06:06:06;;;;;;;8.63;4.00;;;16.50;86.90;;;;;;5017735;28;20050;-54
2023/05/13 06:08:31;;;;;;;8.25;3.67;;;16.50;87.00;;;;;;4984630;28;20138;-54
2023/05/13 06:10:57;;;;;;;10.07;4.03;;;16.50;87.00;;;;;;4985086;28;20086;-54
2023/05/13 06:13:23;;;;;;;5.20;3.53;;;16.40;87.00;;;;;;4984077;28;20134;-54
2023/05/13 06:15:48;;;;;;;8.63;3.67;;;16.50;87.00;;;;;;4985621;28;20038;-54
2023/05/13 06:18:14;;;;;;;6.80;3.60;;;16.50;87.00;;;;;;4985687;28;20396;-54
2023/05/13 06:20:40;;;;;;;8.63;3.45;;;16.50;87.00;;;;;;4984655;28;20035;-54
2023/05/13 06:23:06;;;;;;;5.72;3.65;;;16.50;86.90;;;;;;4986081;28;20035;-54
2023/05/13 06:25:31;;;;;;;6.63;3.78;;;16.50;86.90;;;;;;4985849;28;20591;-54
2023/05/13 06:27:57;;;;;;;4.60;3.25;;;16.40;86.90;;;;;;4984140;28;20051;-54
2023/05/13 06:30:22;;;;;;;9.60;3.60;;;16.40;86.80;;;;;;4984681;28;20105;-54
2023/05/13 06:32:48;;;;;;;9.00;3.53;;;16.50;87.00;;;;;;4986259;28;20045;-54
2023/05/13 06:35:14;;;;;;;4.82;3.50;;;16.40;86.90;;;;;;4984274;28;20523;-55
2023/05/13 06:37:40;;;;;;;7.30;3.47;;;16.50;87.00;;;;;;4984305;28;20034;-54
2023/05/13 06:40:06;;;;;;;9.70;3.67;;;16.50;87.00;;;;;;4983785;28;20043;-54
2023/05/13 06:42:31;;;;;;;5.05;3.35;;;16.40;86.90;;;;;;4984389;28;20038;-54
2023/05/13 06:44:57;;;;;;;5.53;3.40;;;16.50;86.90;;;;;;4985527;28;20046;-54
2023/05/13 06:47:23;;;;;;;6.47;3.38;;;16.40;86.90;;;;;;4984441;28;20035;-54
2023/05/13 06:49:48;;;;;;;4.15;2.90;;;16.40;86.80;;;;;;4985070;28;20074;-55
2023/05/13 06:52:14;;;;;;;4.72;2.95;;;16.40;86.80;;;;;;5017291;28;20242;-54
2023/05/13 06:54:39;;;;;;;5.60;3.35;;;16.40;86.80;;;;;;4984168;28;20122;-54
2023/05/13 06:57:06;;;;;;;8.98;3.22;;;16.40;86.80;;;;;;5016440;28;20067;-54
2023/05/13 06:59:31;;;;;;;4.47;3.10;;;16.50;86.90;;;;;;4983974;28;20023;-54
2023/05/13 07:01:57;;;;;;;9.90;3.50;;;16.40;86.80;;;;;;4999476;28;20668;-54
2023/05/13 07:04:23;;;;;;;4.05;3.15;;;16.50;86.90;;;;;;4983417;28;20105;-55
2023/05/13 07:06:50;;;;;;;5.35;3.10;;;16.40;86.80;;;;;;4985773;28;20031;-54
2023/05/13 07:09:15;;;;;;;4.72;3.05;;;16.40;86.90;;;;;;4984252;28;20103;-54
2023/05/13 07:11:41;;;;;;;6.78;3.30;;;16.40;86.80;;;;;;4999409;28;20031;-54
2023/05/13 07:14:06;;;;;;;5.70;2.85;;;16.40;86.80;;;;;;4985683;28;20041;-54
2023/05/13 07:16:32;;;;;;;5.15;3.25;;;16.40;86.80;;;;;;4985561;28;20038;-55
2023/05/13 07:18:58;;;;;;;8.20;3.15;;;16.40;86.80;;;;;;4984129;28;20050;-54
2023/05/13 07:21:23;;;;;;;3.58;2.65;;;16.40;86.70;;;;;;4986094;28;20125;-54
2023/05/13 07:23:49;;;;;;;6.55;3.20;;;16.40;86.70;;;;;;4983494;28;20093;-55
2023/05/13 07:26:14;;;;;;;5.53;3.00;;;16.50;86.80;;;;;;4985175;28;20382;-54
2023/05/13 07:28:40;;;;;;;3.22;2.72;;;16.50;86.70;;;;;;4983665;28;20035;-55
2023/05/13 07:31:05;;;;;;;4.93;2.67;;;16.40;86.70;;;;;;4983861;28;20035;-54
2023/05/13 07:33:31;;;;;;;6.78;2.83;;;16.40;86.70;;;;;;4983717;28;20047;-54
2023/05/13 07:35:56;;;;;;;7.75;3.10;;;16.50;86.70;;;;;;4983356;28;20031;-55
2023/05/13 07:38:22;;;;;;;6.00;3.05;;;16.50;86.70;;;;;;4983091;28;20067;-54
2023/05/13 07:40:48;;;;;;;3.83;2.70;;;16.50;86.60;;;;;;4999795;28;20042;-55
2023/05/13 07:43:16;;;;;;;4.07;2.78;;;16.50;87.20;;;;;;4984232;28;20069;-54
2023/05/13 07:45:42;;;;;;;4.38;3.15;;;16.50;86.50;;;;;;4983213;28;20022;-54
2023/05/13 07:48:08;;;;;;;6.13;3.10;;;16.50;86.50;;;;;;4983469;28;20356;-55
2023/05/13 07:50:34;;;;;;;5.45;2.80;;;16.50;86.50;;;;;;4984910;28;20085;-54
2023/05/13 07:52:59;;;;;;;5.63;2.90;;;16.50;86.40;;;;;;4984150;28;20031;-54
2023/05/13 07:55:25;;;;;;;5.38;2.40;;;16.50;86.30;;;;;;4982545;28;20043;-54
2023/05/13 07:57:51;;;;;;;12.57;4.88;;;16.50;86.40;;;;;;4987075;28;20035;-55
2023/05/13 08:00:16;;;;;;;4.93;3.10;;;16.50;86.50;;;;;;5019126;28;20041;-54
2023/05/13 08:02:42;;;;;;;5.47;2.97;;;16.50;86.50;;;;;;4987289;28;20055;-54
2023/05/13 08:05:08;;;;;;;4.72;3.25;;;16.50;86.50;;;;;;5024049;28;20026;-54
2023/05/13 08:07:34;;;;;;;5.65;2.75;;;16.50;86.70;;;;;;4986513;28;20041;-54
2023/05/13 08:09:59;;;;;;;4.15;2.67;;;16.60;86.80;;;;;;4981541;28;20023;-54
2023/05/13 08:12:25;;;;;;;3.85;2.83;;;16.60;86.60;;;;;;4979506;28;20027;-54
2023/05/13 08:14:50;;;;;;;6.68;2.65;;;16.60;86.60;;;;;;4978785;28;20461;-55
2023/05/13 08:17:18;;;;;;;10.63;3.88;;;16.60;86.60;;;;;;4971325;28;20106;-54
2023/05/13 08:19:44;;;;;;;8.35;2.78;;;16.60;86.60;;;;;;4965629;28;20111;-55
2023/05/13 08:22:09;;;;;;;10.75;3.70;;;16.60;86.70;;;;;;4987916;28;20461;-54
2023/05/13 08:24:35;;;;;;;7.80;3.58;;;16.60;86.80;;;;;;4984911;28;20022;-54
2023/05/13 08:27:01;;;;;;;8.70;3.30;;;16.60;86.70;;;;;;4989114;28;20050;-55
2023/05/13 08:29:27;;;;;;;11.43;3.38;;;16.60;86.70;;;;;;4987948;28;20054;-55
2023/05/13 08:31:52;;;;;;;9.90;3.78;;;16.60;86.80;;;;;;4983180;28;20030;-55
2023/05/13 08:34:18;;;;;;;40.63;6.38;;;16.70;87.50;;;;;;4981840;28;20043;-54
2023/05/13 08:36:43;;;;;;;40.20;7.05;;;16.70;87.10;;;;;;4986799;28;20096;-54
2023/05/13 08:39:09;;;;;;;50.28;6.88;;;16.70;87.40;;;;;;4964261;28;20037;-55
2023/05/13 08:41:35;;;;;;;64.80;9.45;;;16.70;87.70;;;;;;4978381;28;20731;-54
2023/05/13 08:44:03;;;;;;;58.97;9.07;;;16.70;87.60;;;;;;4980072;28;20082;-54
2023/05/13 08:46:28;;;;;;;112.20;13.32;;;16.70;88.00;;;;;;4990323;28;20024;-54
2023/05/13 08:48:54;;;;;;;84.93;12.82;;;16.80;88.50;;;;;;4978411;28;20126;-54
2023/05/13 08:51:20;;;;;;;116.32;17.50;;;16.80;88.90;;;;;;4975649;28;20034;-54
2023/05/13 08:53:46;;;;;;;153.50;18.65;;;16.80;89.20;;;;;;4963508;28;20059;-54
2023/05/13 08:56:12;;;;;;;112.13;16.65;;;16.80;89.50;;;;;;4979256;28;20467;-54
2023/05/13 08:58:37;;;;;;;147.73;18.20;;;16.90;89.60;;;;;;4979175;28;20054;-55
2023/05/13 09:01:03;;;;;;;127.63;18.42;;;16.90;89.60;;;;;;4984910;28;20027;-54
2023/05/13 09:03:28;;;;;;;118.38;16.15;;;16.90;89.60;;;;;;4991748;28;20027;-54
2023/05/13 09:05:54;;;;;;;145.68;17.48;;;16.90;89.90;;;;;;4985504;28;20118;-54
2023/05/13 09:08:19;;;;;;;236.93;29.70;;;17.00;89.80;;;;;;4990683;28;20053;-54
2023/05/13 09:10:45;;;;;;;173.43;21.63;;;17.00;89.60;;;;;;4996331;28;20022;-54
2023/05/13 09:13:11;;;;;;;208.25;24.65;;;17.00;89.70;;;;;;4983863;28;20090;-54
2023/05/13 09:15:37;;;;;;;145.45;20.25;;;17.00;89.70;;;;;;4985826;28;20065;-54
2023/05/13 09:18:04;;;;;;;152.10;21.23;;;17.10;89.50;;;;;;4968022;28;20551;-55
2023/05/13 09:20:30;;;;;;;196.93;23.20;;;17.00;89.40;;;;;;4975995;28;20038;-54
2023/05/13 09:23:00;;;;;;;164.85;25.15;;;17.10;89.60;;;;;;5007962;28;20043;-54
2023/05/13 09:25:25;;;;;;;188.13;23.30;;;17.10;89.70;;;;;;4978476;28;20030;-55
2023/05/13 09:27:57;;;;;;;198.90;25.55;;;17.10;89.90;;;;;;4980481;28;20035;-54
2023/05/13 09:30:26;;;;;;;152.80;22.73;;;17.20;90.00;;;;;;4979194;28;20031;-55
2023/05/13 09:33:18;;;;;;;190.57;22.67;;;17.20;90.10;;;;;;4977105;28;20035;-55
2023/05/13 09:35:47;;;;;;;190.50;21.90;;;17.20;90.00;;;;;;4979349;28;20031;-55
2023/05/13 09:38:20;;;;;;;234.93;29.90;;;17.30;90.00;;;;;;4983024;28;20049;-55
2023/05/13 09:40:52;;;;;;;174.10;23.58;;;17.30;90.10;;;;;;4978494;28;20062;-54
2023/05/13 09:43:22;;;;;;;195.85;24.98;;;17.40;90.00;;;;;;4983812;28;20062;-54
2023/05/13 09:45:51;;;;;;;203.10;25.60;;;17.50;90.00;;;;;;4991200;28;20027;-55
2023/05/13 09:48:18;;;;;;;246.20;29.58;;;17.50;90.00;;;;;;4983765;28;20098;-54
2023/05/13 09:50:48;;;;;;;210.75;27.40;;;17.50;89.90;;;;;;4979323;28;20538;-54
2023/05/13 09:53:14;;;;;;;227.90;28.00;;;17.50;89.90;;;;;;4974628;28;20046;-55
2023/05/13 09:55:46;;;;;;;245.10;32.50;;;17.50;90.00;;;;;;4976490;28;20042;-55
2023/05/13 09:58:12;;;;;;;241.77;31.85;;;17.60;90.10;;;;;;4982524;28;20107;-54
2023/05/13 10:00:41;;;;;;;240.32;28.67;;;17.60;90.10;;;;;;4976485;28;20035;-54
2023/05/13 10:03:08;;;;;;;213.10;29.33;;;17.60;90.10;;;;;;4975712;28;20046;-55
2023/05/13 10:05:33;;;;;;;250.68;31.02;;;17.60;90.00;;;;;;4976545;28;20153;-55
2023/05/13 10:08:02;;;;;;;238.00;32.40;;;17.60;90.10;;;;;;4966802;28;20030;-55
2023/05/13 10:10:31;;;;;;;210.48;31.67;;;17.60;90.20;;;;;;4977096;28;20440;-55
2023/05/13 10:13:04;;;;;;;225.52;30.15;;;17.60;90.30;;;;;;4982913;28;20046;-54
2023/05/13 10:15:30;;;;;;;215.45;29.58;;;17.70;90.20;;;;;;4981778;28;20049;-55
2023/05/13 10:17:56;;;;;;;188.15;25.60;;;17.70;90.10;;;;;;4976363;28;20034;-54
2023/05/13 10:20:23;;;;;;;205.15;27.75;;;17.80;90.00;;;;;;4973619;28;20058;-54
2023/05/13 10:22:48;;;;;;;228.48;30.23;;;17.90;89.90;;;;;;4999262;28;20047;-54
2023/05/13 10:25:14;;;;;;;225.18;31.00;;;17.90;89.90;;;;;;4994737;28;20182;-54
2023/05/13 10:27:39;;;;;;;211.73;27.17;;;17.80;90.10;;;;;;4984903;28;20098;-54
2023/05/13 10:30:09;;;;;;;188.93;26.30;;;17.80;90.10;;;;;;4982455;28;20042;-54
2023/05/13 10:32:34;;;;;;;184.98;25.90;;;17.80;90.00;;;;;;4968509;28;20102;-54
2023/05/13 10:35:11;;;;;;;180.63;27.25;;;17.80;90.00;;;;;;4984025;28;20546;-54
2023/05/13 10:37:53;;;;;;;156.02;24.55;;;17.90;90.00;;;;;;4984064;28;20041;-54
2023/05/13 10:40:52;;;;;;;203.10;27.00;;;17.90;89.60;;;;;;4970381;28;20090;-55
2023/05/13 10:43:23;;;;;;;192.73;27.55;;;17.90;89.50;;;;;;4971654;28;20077;-54
2023/05/13 10:45:59;;;;;;;219.18;28.40;;;18.00;89.90;;;;;;4983718;28;20045;-54
2023/05/13 10:48:25;;;;;;;;;;;18.00;90.20;;;;;;4982705;28;20023;-55
2023/05/13 10:50:54;;;;;;;252.88;31.08;;;18.10;89.70;;;;;;4999074;28;19917;-54
2023/05/13 10:53:47;;;;;;;232.60;30.67;;;18.10;89.60;;;;;;4983628;28;20046;-54
2023/05/13 10:56:12;;;;;;;265.27;33.92;;;18.10;89.50;;;;;;4959995;29;20039;-55
2023/05/13 10:58:38;;;;;;;231.45;28.75;;;18.20;89.60;;;;;;4974118;28;20447;-54
2023/05/13 11:01:27;;;;;;;176.52;24.58;;;18.20;89.30;;;;;;4984901;28;20089;-54
2023/05/13 11:04:01;;;;;;;196.98;25.77;;;18.20;89.20;;;;;;4981914;28;20042;-54
2023/05/13 11:06:39;;;;;;;186.23;25.77;;;18.20;89.20;;;;;;5015486;28;20026;-54
2023/05/13 11:09:12;;;;;;;214.40;25.95;;;18.30;89.10;;;;;;4968057;28;20082;-55
2023/05/13 11:11:38;;;;;;;159.25;25.55;;;18.30;89.10;;;;;;4983801;28;20145;-54
2023/05/13 11:14:16;;;;;;;153.18;22.95;;;18.40;89.00;;;;;;4983842;28;20026;-54
2023/05/13 11:16:51;;;;;;;155.13;23.02;;;18.40;88.70;;;;;;4984124;28;20122;-54
2023/05/13 11:19:21;;;;;;;165.00;22.08;;;18.40;88.60;;;;;;4983050;28;20474;-54
2023/05/13 11:21:49;;;;;;;132.77;20.60;;;18.50;88.50;;;;;;4983529;28;20042;-54
2023/05/13 11:24:16;;;;;;;158.50;22.50;;;18.50;88.40;;;;;;4983371;28;20075;-55
2023/05/13 11:26:47;;;;;;;172.75;24.05;;;18.50;88.30;;;;;;4983778;28;20039;-54
2023/05/13 11:29:12;;;;;;;197.80;24.73;;;18.60;88.30;;;;;;4982732;28;20043;-55
2023/05/13 11:31:48;;;;;;;185.48;27.23;;;18.60;88.00;;;;;;4966368;28;20061;-54
2023/05/13 11:34:18;;;;;;;166.50;22.60;;;18.60;87.70;;;;;;4985303;28;20102;-55
2023/05/13 11:36:48;;;;;;;161.50;22.77;;;18.70;87.60;;;;;;4987309;28;20043;-55
2023/05/13 11:39:18;;;;;;;183.80;24.50;;;18.70;87.50;;;;;;4988235;28;20404;-55
2023/05/13 11:41:48;;;;;;;200.15;22.83;;;18.80;87.50;;;;;;4971245;28;20061;-55
2023/05/13 11:44:18;;;;;;;193.18;23.38;;;18.80;87.30;;;;;;4985691;28;20027;-55
2023/05/13 11:46:54;;;;;;;175.68;22.25;;;18.90;87.40;;;;;;4985617;28;20086;-55
2023/05/13 11:49:39;;;;;;;187.05;26.08;;;18.90;87.00;;;;;;4987343;28;20134;-53
2023/05/13 11:52:09;;;;;;;227.38;26.48;;;18.90;87.00;;;;;;4986922;28;20038;-55
2023/05/13 11:54:44;;;;;;;150.32;20.15;;;19.00;87.10;;;;;;4986382;28;20094;-55
2023/05/13 11:57:20;;;;;;;167.70;21.33;;;19.00;86.80;;;;;;4969219;28;20496;-54
2023/05/13 12:00:05;;;;;;;170.23;22.58;;;19.00;86.20;;;;;;4977231;28;20027;-55
2023/05/13 12:02:34;;;;;;;129.52;19.60;;;19.00;86.20;;;;;;4986103;28;20109;-55
2023/05/13 12:05:03;;;;;;;148.35;20.60;;;19.10;86.40;;;;;;4968926;28;20038;-55
2023/05/13 12:07:29;;;;;;;150.88;21.75;;;19.10;86.20;;;;;;4969825;28;20404;-59
2023/05/13 12:09:56;;;;;;;154.38;22.02;;;19.10;85.90;;;;;;4985666;28;20030;-60
2023/05/13 12:12:22;;;;;;;189.82;23.80;;;19.10;85.60;;;;;;4986095;28;20062;-59
2023/05/13 12:14:51;;;;;;;171.23;22.10;;;19.20;85.70;;;;;;4986167;28;20027;-59
2023/05/13 12:17:17;;;;;;;150.35;21.42;;;19.20;85.70;;;;;;4985638;28;20034;-59
2023/05/13 12:20:14;;;;;;;136.18;20.95;;;19.20;85.60;;;;;;4984848;28;20106;-59
2023/05/13 12:22:43;;;;;;;142.90;18.58;;;19.30;85.60;;;;;;4986350;28;20448;-59
2023/05/13 12:25:46;;;;;;;147.43;20.52;;;19.30;85.40;;;;;;4987345;28;20050;-59
2023/05/13 12:28:22;;;;;;;134.43;18.90;;;19.30;85.20;;;;;;4986940;28;20026;-59
2023/05/13 12:30:58;;;;;;;119.80;17.38;;;19.30;85.20;;;;;;4986375;28;20034;-59
2023/05/13 12:33:25;;;;;;;135.27;18.23;;;19.30;85.20;;;;;;4987272;28;20042;-59